sensor_id;sensor_type;location;lat;lon;timestamp;P1;durP1;ratioP1;P2;durP2;ratioP2
19036;SDS011;9651;49.138;8.900;2023-01-15T00:02:17;0.33;;;0.30;;
19036;SDS011;9651;49.138;8.900;2023-01-15T00:06:19;0.30;;;0.30;;
19036;SDS011;9651;49.138;8.900;2023-01-15T00:10:21;0.53;;;0.20;;
19036;SDS011;9651;49.138;8.900;2023-01-15T00:14:23;1.50;;;0.30;;
19036;SDS011;9651;49.138;8.900;2023-01-15T00:18:26;0.17;;;0.17;;
19036;SDS011;9651;49.138;8.900;2023-01-15T00:22:28;0.20;;;0.20;;
19036;SDS011;9651;49.138;8.900;2023-01-15T00:26:30;0.30;;;0.30;;
19036;SDS011;9651;49.138;8.900;2023-01-15T00:30:51;0.30;;;0.30;;
19036;SDS011;9651;49.138;8.900;2023-01-15T00:34:55;0.60;;;0.30;;
19036;SDS011;9651;49.138;8.900;2023-01-15T00:38:58;0.20;;;0.20;;
19036;SDS011;9651;49.138;8.900;2023-01-15T00:43:00;0.67;;;0.30;;
19036;SDS011;9651;49.138;8.900;2023-01-15T00:47:02;0.10;;;0.10;;
19036;SDS011;9651;49.138;8.900;2023-01-15T00:51:06;0.37;;;0.20;;
19036;SDS011;9651;49.138;8.900;2023-01-15T00:55:08;0.20;;;0.20;;
19036;SDS011;9651;49.138;8.900;2023-01-15T00:59:10;0.27;;;0.20;;
19036;SDS011;9651;49.138;8.900;2023-01-15T01:03:12;0.10;;;0.10;;
19036;SDS011;9651;49.138;8.900;2023-01-15T01:07:16;0.83;;;0.20;;
19036;SDS011;9651;49.138;8.900;2023-01-15T01:11:19;0.10;;;0.10;;
19036;SDS011;9651;49.138;8.900;2023-01-15T01:15:23;1.43;;;0.30;;
19036;SDS011;9651;49.138;8.900;2023-01-15T01:19:25;0.20;;;0.20;;
19036;SDS011;9651;49.138;8.900;2023-01-15T01:23:28;0.43;;;0.30;;
19036;SDS011;9651;49.138;8.900;2023-01-15T01:27:31;0.20;;;0.20;;
19036;SDS011;9651;49.138;8.900;2023-01-15T01:31:33;0.30;;;0.10;;
19036;SDS011;9651;49.138;8.900;2023-01-15T01:35:35;0.40;;;0.30;;
19036;SDS011;9651;49.138;8.900;2023-01-15T01:39:39;0.20;;;0.20;;
19036;SDS011;9651;49.138;8.900;2023-01-15T01:43:55;0.60;;;0.20;;
19036;SDS011;9651;49.138;8.900;2023-01-15T01:47:58;0.30;;;0.30;;
19036;SDS011;9651;49.138;8.900;2023-01-15T01:52:05;0.20;;;0.20;;
19036;SDS011;9651;49.138;8.900;2023-01-15T01:56:10;0.33;;;0.20;;
19036;SDS011;9651;49.138;8.900;2023-01-15T02:00:16;0.10;;;0.10;;
19036;SDS011;9651;49.138;8.900;2023-01-15T02:04:20;0.83;;;0.57;;
19036;SDS011;9651;49.138;8.900;2023-01-15T02:08:26;0.43;;;0.10;;
19036;SDS011;9651;49.138;8.900;2023-01-15T02:12:30;0.37;;;0.20;;
19036;SDS011;9651;49.138;8.900;2023-01-15T02:16:36;0.10;;;0.10;;
19036;SDS011;9651;49.138;8.900;2023-01-15T02:20:44;0.13;;;0.13;;
19036;SDS011;9651;49.138;8.900;2023-01-15T02:24:53;0.10;;;0.10;;
19036;SDS011;9651;49.138;8.900;2023-01-15T02:29:04;0.10;;;0.10;;
19036;SDS011;9651;49.138;8.900;2023-01-15T02:33:13;0.10;;;0.10;;
19036;SDS011;9651;49.138;8.900;2023-01-15T02:37:19;0.10;;;0.10;;
19036;SDS011;9651;49.138;8.900;2023-01-15T02:41:28;0.23;;;0.20;;
19036;SDS011;9651;49.138;8.900;2023-01-15T02:45:35;0.40;;;0.10;;
19036;SDS011;9651;49.138;8.900;2023-01-15T02:49:45;0.10;;;0.10;;
19036;SDS011;9651;49.138;8.900;2023-01-15T02:53:51;0.10;;;0.10;;
19036;SDS011;9651;49.138;8.900;2023-01-15T02:57:58;0.10;;;0.10;;
19036;SDS011;9651;49.138;8.900;2023-01-15T03:02:09;0.10;;;0.10;;
19036;SDS011;9651;49.138;8.900;2023-01-15T03:06:13;0.20;;;0.20;;
19036;SDS011;9651;49.138;8.900;2023-01-15T03:10:20;0.10;;;0.10;;
19036;SDS011;9651;49.138;8.900;2023-01-15T03:14:29;0.10;;;0.10;;
19036;SDS011;9651;49.138;8.900;2023-01-15T03:18:41;0.10;;;0.10;;
19036;SDS011;9651;49.138;8.900;2023-01-15T03:22:48;0.20;;;0.13;;
19036;SDS011;9651;49.138;8.900;2023-01-15T03:26:53;0.20;;;0.20;;
19036;SDS011;9651;49.138;8.900;2023-01-15T03:30:57;0.13;;;0.10;;
19036;SDS011;9651;49.138;8.900;2023-01-15T03:35:00;1.50;;;0.20;;
19036;SDS011;9651;49.138;8.900;2023-01-15T03:39:03;1.20;;;0.10;;
19036;SDS011;9651;49.138;8.900;2023-01-15T03:43:28;0.13;;;0.13;;
19036;SDS011;9651;49.138;8.900;2023-01-15T03:47:45;0.10;;;0.10;;
19036;SDS011;9651;49.138;8.900;2023-01-15T03:52:00;0.83;;;0.20;;
19036;SDS011;9651;49.138;8.900;2023-01-15T03:56:09;0.90;;;0.53;;
19036;SDS011;9651;49.138;8.900;2023-01-15T04:00:21;1.93;;;0.30;;
19036;SDS011;9651;49.138;8.900;2023-01-15T04:04:31;0.10;;;0.10;;
19036;SDS011;9651;49.138;8.900;2023-01-15T04:08:38;1.33;;;0.30;;
19036;SDS011;9651;49.138;8.900;2023-01-15T04:12:43;2.70;;;0.60;;
19036;SDS011;9651;49.138;8.900;2023-01-15T04:16:45;2.43;;;1.63;;
19036;SDS011;9651;49.138;8.900;2023-01-15T04:20:48;1.03;;;0.73;;
19036;SDS011;9651;49.138;8.900;2023-01-15T04:24:51;0.60;;;0.40;;
19036;SDS011;9651;49.138;8.900;2023-01-15T04:28:54;0.70;;;0.20;;
19036;SDS011;9651;49.138;8.900;2023-01-15T04:32:56;3.20;;;1.70;;
19036;SDS011;9651;49.138;8.900;2023-01-15T04:36:57;0.63;;;0.50;;
19036;SDS011;9651;49.138;8.900;2023-01-15T04:41:01;0.63;;;0.40;;
19036;SDS011;9651;49.138;8.900;2023-01-15T04:45:21;0.40;;;0.40;;
19036;SDS011;9651;49.138;8.900;2023-01-15T04:49:23;0.37;;;0.30;;
19036;SDS011;9651;49.138;8.900;2023-01-15T04:53:25;2.53;;;0.30;;
19036;SDS011;9651;49.138;8.900;2023-01-15T04:57:28;0.37;;;0.37;;
19036;SDS011;9651;49.138;8.900;2023-01-15T05:01:30;0.60;;;0.60;;
19036;SDS011;9651;49.138;8.900;2023-01-15T05:05:32;0.80;;;0.80;;
19036;SDS011;9651;49.138;8.900;2023-01-15T05:09:34;1.23;;;1.00;;
19036;SDS011;9651;49.138;8.900;2023-01-15T05:13:37;1.40;;;1.30;;
19036;SDS011;9651;49.138;8.900;2023-01-15T05:17:39;1.23;;;1.13;;
19036;SDS011;9651;49.138;8.900;2023-01-15T05:21:41;0.93;;;0.93;;
19036;SDS011;9651;49.138;8.900;2023-01-15T05:25:44;1.00;;;1.00;;
19036;SDS011;9651;49.138;8.900;2023-01-15T05:29:47;0.87;;;0.87;;
19036;SDS011;9651;49.138;8.900;2023-01-15T05:33:49;0.40;;;0.40;;
19036;SDS011;9651;49.138;8.900;2023-01-15T05:37:52;0.77;;;0.50;;
19036;SDS011;9651;49.138;8.900;2023-01-15T05:41:54;0.40;;;0.40;;
19036;SDS011;9651;49.138;8.900;2023-01-15T05:46:01;1.23;;;0.50;;
19036;SDS011;9651;49.138;8.900;2023-01-15T05:50:03;0.40;;;0.40;;
19036;SDS011;9651;49.138;8.900;2023-01-15T05:54:06;0.30;;;0.30;;
19036;SDS011;9651;49.138;8.900;2023-01-15T05:58:11;0.40;;;0.40;;
19036;SDS011;9651;49.138;8.900;2023-01-15T06:02:14;0.53;;;0.53;;
19036;SDS011;9651;49.138;8.900;2023-01-15T06:06:16;0.40;;;0.40;;
19036;SDS011;9651;49.138;8.900;2023-01-15T06:10:18;0.30;;;0.30;;
19036;SDS011;9651;49.138;8.900;2023-01-15T06:14:20;0.30;;;0.30;;
19036;SDS011;9651;49.138;8.900;2023-01-15T06:18:23;0.40;;;0.27;;
19036;SDS011;9651;49.138;8.900;2023-01-15T06:22:25;0.20;;;0.20;;
19036;SDS011;9651;49.138;8.900;2023-01-15T06:26:28;0.20;;;0.20;;
19036;SDS011;9651;49.138;8.900;2023-01-15T06:30:30;1.20;;;0.63;;
19036;SDS011;9651;49.138;8.900;2023-01-15T06:34:34;0.73;;;0.50;;
19036;SDS011;9651;49.138;8.900;2023-01-15T06:38:36;0.63;;;0.30;;
19036;SDS011;9651;49.138;8.900;2023-01-15T06:42:38;0.10;;;0.10;;
19036;SDS011;9651;49.138;8.900;2023-01-15T06:46:57;0.20;;;0.20;;
19036;SDS011;9651;49.138;8.900;2023-01-15T06:51:20;0.13;;;0.13;;
19036;SDS011;9651;49.138;8.900;2023-01-15T06:55:22;0.50;;;0.20;;
19036;SDS011;9651;49.138;8.900;2023-01-15T06:59:24;0.17;;;0.17;;
19036;SDS011;9651;49.138;8.900;2023-01-15T07:03:26;0.30;;;0.20;;
19036;SDS011;9651;49.138;8.900;2023-01-15T07:07:29;0.20;;;0.20;;
19036;SDS011;9651;49.138;8.900;2023-01-15T07:11:31;0.20;;;0.20;;
19036;SDS011;9651;49.138;8.900;2023-01-15T07:15:33;0.20;;;0.20;;
19036;SDS011;9651;49.138;8.900;2023-01-15T07:19:35;0.30;;;0.30;;
19036;SDS011;9651;49.138;8.900;2023-01-15T07:23:38;0.33;;;0.20;;
19036;SDS011;9651;49.138;8.900;2023-01-15T07:27:40;0.63;;;0.20;;
19036;SDS011;9651;49.138;8.900;2023-01-15T07:31:42;0.10;;;0.10;;
19036;SDS011;9651;49.138;8.900;2023-01-15T07:35:43;0.20;;;0.20;;
19036;SDS011;9651;49.138;8.900;2023-01-15T07:39:47;0.37;;;0.20;;
19036;SDS011;9651;49.138;8.900;2023-01-15T07:43:48;0.20;;;0.20;;
19036;SDS011;9651;49.138;8.900;2023-01-15T07:48:09;0.20;;;0.20;;
19036;SDS011;9651;49.138;8.900;2023-01-15T07:52:29;0.57;;;0.40;;
19036;SDS011;9651;49.138;8.900;2023-01-15T07:56:32;0.30;;;0.30;;
19036;SDS011;9651;49.138;8.900;2023-01-15T08:00:34;0.50;;;0.30;;
19036;SDS011;9651;49.138;8.900;2023-01-15T08:04:35;0.10;;;0.10;;
19036;SDS011;9651;49.138;8.900;2023-01-15T08:08:37;0.20;;;0.20;;
19036;SDS011;9651;49.138;8.900;2023-01-15T08:12:40;0.20;;;0.20;;
19036;SDS011;9651;49.138;8.900;2023-01-15T08:17:05;0.30;;;0.30;;
19036;SDS011;9651;49.138;8.900;2023-01-15T08:21:11;0.67;;;0.60;;
19036;SDS011;9651;49.138;8.900;2023-01-15T08:25:15;0.80;;;0.80;;
19036;SDS011;9651;49.138;8.900;2023-01-15T08:29:19;1.23;;;0.80;;
19036;SDS011;9651;49.138;8.900;2023-01-15T08:33:22;0.50;;;0.50;;
19036;SDS011;9651;49.138;8.900;2023-01-15T08:37:24;0.60;;;0.40;;
19036;SDS011;9651;49.138;8.900;2023-01-15T08:41:26;0.87;;;0.40;;
19036;SDS011;9651;49.138;8.900;2023-01-15T08:45:29;0.30;;;0.27;;
19036;SDS011;9651;49.138;8.900;2023-01-15T08:49:31;0.30;;;0.30;;
19036;SDS011;9651;49.138;8.900;2023-01-15T08:53:33;0.30;;;0.30;;
19036;SDS011;9651;49.138;8.900;2023-01-15T08:57:35;0.30;;;0.30;;
19036;SDS011;9651;49.138;8.900;2023-01-15T09:01:39;0.83;;;0.63;;
19036;SDS011;9651;49.138;8.900;2023-01-15T09:05:41;0.37;;;0.30;;
19036;SDS011;9651;49.138;8.900;2023-01-15T09:09:42;0.97;;;0.70;;
19036;SDS011;9651;49.138;8.900;2023-01-15T09:13:44;1.50;;;1.00;;
19036;SDS011;9651;49.138;8.900;2023-01-15T09:17:48;0.40;;;0.40;;
19036;SDS011;9651;49.138;8.900;2023-01-15T09:21:50;0.63;;;0.30;;
19036;SDS011;9651;49.138;8.900;2023-01-15T09:25:52;0.60;;;0.60;;
19036;SDS011;9651;49.138;8.900;2023-01-15T09:29:54;0.27;;;0.27;;
19036;SDS011;9651;49.138;8.900;2023-01-15T09:33:58;0.80;;;0.70;;
19036;SDS011;9651;49.138;8.900;2023-01-15T09:38:00;0.33;;;0.33;;
19036;SDS011;9651;49.138;8.900;2023-01-15T09:42:05;0.30;;;0.30;;
19036;SDS011;9651;49.138;8.900;2023-01-15T09:46:20;1.63;;;0.50;;
19036;SDS011;9651;49.138;8.900;2023-01-15T09:50:29;0.87;;;0.40;;
19036;SDS011;9651;49.138;8.900;2023-01-15T09:54:44;0.33;;;0.33;;
19036;SDS011;9651;49.138;8.900;2023-01-15T09:58:55;0.63;;;0.30;;
19036;SDS011;9651;49.138;8.900;2023-01-15T10:03:00;0.30;;;0.20;;
19036;SDS011;9651;49.138;8.900;2023-01-15T10:07:11;1.10;;;0.40;;
19036;SDS011;9651;49.138;8.900;2023-01-15T10:11:28;0.60;;;0.30;;
19036;SDS011;9651;49.138;8.900;2023-01-15T10:15:53;0.73;;;0.33;;
19036;SDS011;9651;49.138;8.900;2023-01-15T10:19:56;0.60;;;0.57;;
19036;SDS011;9651;49.138;8.900;2023-01-15T10:24:01;0.60;;;0.23;;
19036;SDS011;9651;49.138;8.900;2023-01-15T10:28:09;0.43;;;0.30;;
19036;SDS011;9651;49.138;8.900;2023-01-15T10:32:21;0.83;;;0.20;;
19036;SDS011;9651;49.138;8.900;2023-01-15T10:36:30;0.50;;;0.13;;
19036;SDS011;9651;49.138;8.900;2023-01-15T10:40:43;0.60;;;0.50;;
19036;SDS011;9651;49.138;8.900;2023-01-15T10:44:57;0.40;;;0.30;;
19036;SDS011;9651;49.138;8.900;2023-01-15T10:49:05;0.70;;;0.50;;
19036;SDS011;9651;49.138;8.900;2023-01-15T10:53:14;0.73;;;0.40;;
19036;SDS011;9651;49.138;8.900;2023-01-15T10:57:24;0.27;;;0.23;;
19036;SDS011;9651;49.138;8.900;2023-01-15T11:01:39;0.40;;;0.30;;
19036;SDS011;9651;49.138;8.900;2023-01-15T11:05:41;1.10;;;0.40;;
19036;SDS011;9651;49.138;8.900;2023-01-15T11:09:44;0.50;;;0.40;;
19036;SDS011;9651;49.138;8.900;2023-01-15T11:13:54;1.87;;;1.00;;
19036;SDS011;9651;49.138;8.900;2023-01-15T11:18:14;1.00;;;0.60;;
19036;SDS011;9651;49.138;8.900;2023-01-15T11:22:41;3.33;;;2.87;;
19036;SDS011;9651;49.138;8.900;2023-01-15T11:26:44;2.07;;;1.13;;
19036;SDS011;9651;49.138;8.900;2023-01-15T11:30:53;0.60;;;0.60;;
19036;SDS011;9651;49.138;8.900;2023-01-15T11:34:56;1.93;;;0.80;;
19036;SDS011;9651;49.138;8.900;2023-01-15T11:38:59;0.97;;;0.90;;
19036;SDS011;9651;49.138;8.900;2023-01-15T11:43:00;1.07;;;0.77;;
19036;SDS011;9651;49.138;8.900;2023-01-15T11:47:21;1.20;;;0.43;;
19036;SDS011;9651;49.138;8.900;2023-01-15T11:51:41;6.80;;;2.70;;
19036;SDS011;9651;49.138;8.900;2023-01-15T11:55:55;13.43;;;5.10;;
19036;SDS011;9651;49.138;8.900;2023-01-15T12:00:00;1.27;;;0.90;;
19036;SDS011;9651;49.138;8.900;2023-01-15T12:04:06;0.57;;;0.53;;
19036;SDS011;9651;49.138;8.900;2023-01-15T12:08:27;1.40;;;0.60;;
19036;SDS011;9651;49.138;8.900;2023-01-15T12:12:40;1.13;;;0.50;;
19036;SDS011;9651;49.138;8.900;2023-01-15T12:16:50;1.63;;;0.70;;
19036;SDS011;9651;49.138;8.900;2023-01-15T12:21:05;1.40;;;0.53;;
19036;SDS011;9651;49.138;8.900;2023-01-15T12:25:26;2.97;;;0.50;;
19036;SDS011;9651;49.138;8.900;2023-01-15T12:29:35;1.10;;;0.50;;
19036;SDS011;9651;49.138;8.900;2023-01-15T12:33:44;3.50;;;0.57;;
19036;SDS011;9651;49.138;8.900;2023-01-15T12:37:51;1.40;;;0.50;;
19036;SDS011;9651;49.138;8.900;2023-01-15T12:41:57;0.67;;;0.50;;
19036;SDS011;9651;49.138;8.900;2023-01-15T12:46:21;2.27;;;0.60;;
19036;SDS011;9651;49.138;8.900;2023-01-15T12:50:30;2.33;;;0.60;;
19036;SDS011;9651;49.138;8.900;2023-01-15T12:54:40;1.30;;;0.57;;
19036;SDS011;9651;49.138;8.900;2023-01-15T12:58:52;1.00;;;0.60;;
19036;SDS011;9651;49.138;8.900;2023-01-15T13:03:00;2.03;;;0.60;;
19036;SDS011;9651;49.138;8.900;2023-01-15T13:07:10;2.40;;;0.70;;
19036;SDS011;9651;49.138;8.900;2023-01-15T13:11:20;2.77;;;0.60;;
19036;SDS011;9651;49.138;8.900;2023-01-15T13:15:24;0.90;;;0.57;;
19036;SDS011;9651;49.138;8.900;2023-01-15T13:19:31;1.23;;;0.70;;
19036;SDS011;9651;49.138;8.900;2023-01-15T13:23:43;4.00;;;0.90;;
19036;SDS011;9651;49.138;8.900;2023-01-15T13:28:02;2.43;;;0.67;;
19036;SDS011;9651;49.138;8.900;2023-01-15T13:32:21;2.20;;;0.90;;
19036;SDS011;9651;49.138;8.900;2023-01-15T13:36:27;5.33;;;2.30;;
19036;SDS011;9651;49.138;8.900;2023-01-15T13:40:34;4.63;;;0.80;;
19036;SDS011;9651;49.138;8.900;2023-01-15T13:44:46;1.97;;;0.80;;
19036;SDS011;9651;49.138;8.900;2023-01-15T13:48:51;4.60;;;1.00;;
19036;SDS011;9651;49.138;8.900;2023-01-15T13:52:58;2.67;;;1.87;;
19036;SDS011;9651;49.138;8.900;2023-01-15T13:57:06;2.03;;;1.17;;
19036;SDS011;9651;49.138;8.900;2023-01-15T14:01:21;1.70;;;0.90;;
19036;SDS011;9651;49.138;8.900;2023-01-15T14:05:26;3.83;;;0.80;;
19036;SDS011;9651;49.138;8.900;2023-01-15T14:09:31;2.17;;;1.10;;
19036;SDS011;9651;49.138;8.900;2023-01-15T14:13:42;3.00;;;0.57;;
19036;SDS011;9651;49.138;8.900;2023-01-15T14:18:06;0.37;;;0.37;;
19036;SDS011;9651;49.138;8.900;2023-01-15T14:22:33;1.43;;;0.83;;
19036;SDS011;9651;49.138;8.900;2023-01-15T14:26:47;1.40;;;0.57;;
19036;SDS011;9651;49.138;8.900;2023-01-15T14:31:01;3.07;;;0.97;;
19036;SDS011;9651;49.138;8.900;2023-01-15T14:35:25;4.63;;;1.00;;
19036;SDS011;9651;49.138;8.900;2023-01-15T14:39:29;0.97;;;0.60;;
19036;SDS011;9651;49.138;8.900;2023-01-15T14:43:38;2.60;;;0.73;;
19036;SDS011;9651;49.138;8.900;2023-01-15T14:47:48;1.77;;;0.97;;
19036;SDS011;9651;49.138;8.900;2023-01-15T14:51:53;2.97;;;0.60;;
19036;SDS011;9651;49.138;8.900;2023-01-15T14:55:55;4.17;;;0.50;;
19036;SDS011;9651;49.138;8.900;2023-01-15T15:00:02;2.70;;;0.70;;
19036;SDS011;9651;49.138;8.900;2023-01-15T15:04:18;4.80;;;0.67;;
19036;SDS011;9651;49.138;8.900;2023-01-15T15:08:24;2.73;;;0.60;;
19036;SDS011;9651;49.138;8.900;2023-01-15T15:12:32;1.90;;;0.60;;
19036;SDS011;9651;49.138;8.900;2023-01-15T15:16:41;1.80;;;0.70;;
19036;SDS011;9651;49.138;8.900;2023-01-15T15:20:49;1.00;;;0.53;;
19036;SDS011;9651;49.138;8.900;2023-01-15T15:24:56;2.10;;;0.60;;
19036;SDS011;9651;49.138;8.900;2023-01-15T15:29:02;2.87;;;0.53;;
19036;SDS011;9651;49.138;8.900;2023-01-15T15:33:08;1.50;;;0.70;;
19036;SDS011;9651;49.138;8.900;2023-01-15T15:37:16;3.90;;;1.10;;
19036;SDS011;9651;49.138;8.900;2023-01-15T15:41:21;1.07;;;0.70;;
19036;SDS011;9651;49.138;8.900;2023-01-15T15:45:49;1.90;;;0.73;;
19036;SDS011;9651;49.138;8.900;2023-01-15T15:50:17;3.10;;;0.70;;
19036;SDS011;9651;49.138;8.900;2023-01-15T15:54:21;2.60;;;0.50;;
19036;SDS011;9651;49.138;8.900;2023-01-15T15:58:28;1.50;;;0.60;;
19036;SDS011;9651;49.138;8.900;2023-01-15T16:02:33;1.30;;;0.80;;
19036;SDS011;9651;49.138;8.900;2023-01-15T16:06:40;0.90;;;0.60;;
19036;SDS011;9651;49.138;8.900;2023-01-15T16:10:42;2.43;;;0.63;;
19036;SDS011;9651;49.138;8.900;2023-01-15T16:14:47;1.53;;;0.70;;
19036;SDS011;9651;49.138;8.900;2023-01-15T16:18:51;2.40;;;0.73;;
19036;SDS011;9651;49.138;8.900;2023-01-15T16:22:56;4.00;;;0.73;;
19036;SDS011;9651;49.138;8.900;2023-01-15T16:27:00;0.60;;;0.40;;
19036;SDS011;9651;49.138;8.900;2023-01-15T16:31:07;1.30;;;0.53;;
19036;SDS011;9651;49.138;8.900;2023-01-15T16:35:13;1.83;;;0.50;;
19036;SDS011;9651;49.138;8.900;2023-01-15T16:39:19;3.67;;;0.80;;
19036;SDS011;9651;49.138;8.900;2023-01-15T16:43:24;1.97;;;0.70;;
19036;SDS011;9651;49.138;8.900;2023-01-15T16:47:29;2.53;;;0.57;;
19036;SDS011;9651;49.138;8.900;2023-01-15T16:51:34;1.80;;;0.53;;
19036;SDS011;9651;49.138;8.900;2023-01-15T16:55:42;3.80;;;0.90;;
19036;SDS011;9651;49.138;8.900;2023-01-15T16:59:58;4.67;;;1.10;;
19036;SDS011;9651;49.138;8.900;2023-01-15T17:04:04;0.87;;;0.53;;
19036;SDS011;9651;49.138;8.900;2023-01-15T17:08:20;1.40;;;0.60;;
19036;SDS011;9651;49.138;8.900;2023-01-15T17:12:25;1.97;;;0.60;;
19036;SDS011;9651;49.138;8.900;2023-01-15T17:16:30;1.70;;;0.63;;
19036;SDS011;9651;49.138;8.900;2023-01-15T17:20:33;2.90;;;0.60;;
19036;SDS011;9651;49.138;8.900;2023-01-15T17:24:35;1.30;;;0.80;;
19036;SDS011;9651;49.138;8.900;2023-01-15T17:28:37;1.63;;;0.60;;
19036;SDS011;9651;49.138;8.900;2023-01-15T17:32:38;2.43;;;0.77;;
19036;SDS011;9651;49.138;8.900;2023-01-15T17:36:42;1.70;;;0.60;;
19036;SDS011;9651;49.138;8.900;2023-01-15T17:40:44;1.40;;;0.80;;
19036;SDS011;9651;49.138;8.900;2023-01-15T17:44:46;1.60;;;0.70;;
19036;SDS011;9651;49.138;8.900;2023-01-15T17:48:48;3.70;;;0.80;;
19036;SDS011;9651;49.138;8.900;2023-01-15T17:52:51;3.10;;;1.00;;
19036;SDS011;9651;49.138;8.900;2023-01-15T17:56:53;1.93;;;0.73;;
19036;SDS011;9651;49.138;8.900;2023-01-15T18:01:21;4.83;;;1.80;;
19036;SDS011;9651;49.138;8.900;2023-01-15T18:05:43;5.90;;;1.60;;
19036;SDS011;9651;49.138;8.900;2023-01-15T18:09:48;3.23;;;1.10;;
19036;SDS011;9651;49.138;8.900;2023-01-15T18:13:52;7.83;;;3.27;;
19036;SDS011;9651;49.138;8.900;2023-01-15T18:17:55;4.07;;;3.30;;
19036;SDS011;9651;49.138;8.900;2023-01-15T18:21:56;5.93;;;2.07;;
19036;SDS011;9651;49.138;8.900;2023-01-15T18:26:02;5.67;;;2.03;;
19036;SDS011;9651;49.138;8.900;2023-01-15T18:30:05;5.60;;;1.90;;
19036;SDS011;9651;49.138;8.900;2023-01-15T18:34:08;6.40;;;1.67;;
19036;SDS011;9651;49.138;8.900;2023-01-15T18:38:09;3.63;;;1.47;;
19036;SDS011;9651;49.138;8.900;2023-01-15T18:42:13;4.07;;;2.53;;
19036;SDS011;9651;49.138;8.900;2023-01-15T18:46:32;5.67;;;1.10;;
19036;SDS011;9651;49.138;8.900;2023-01-15T18:50:43;3.00;;;0.90;;
19036;SDS011;9651;49.138;8.900;2023-01-15T18:54:45;4.80;;;0.60;;
19036;SDS011;9651;49.138;8.900;2023-01-15T18:58:49;1.73;;;0.83;;
19036;SDS011;9651;49.138;8.900;2023-01-15T19:02:50;2.30;;;0.70;;
19036;SDS011;9651;49.138;8.900;2023-01-15T19:06:53;2.20;;;0.60;;
19036;SDS011;9651;49.138;8.900;2023-01-15T19:10:55;2.83;;;0.70;;
19036;SDS011;9651;49.138;8.900;2023-01-15T19:14:58;2.90;;;0.73;;
19036;SDS011;9651;49.138;8.900;2023-01-15T19:19:17;0.83;;;0.60;;
19036;SDS011;9651;49.138;8.900;2023-01-15T19:23:19;1.70;;;1.03;;
19036;SDS011;9651;49.138;8.900;2023-01-15T19:27:21;3.60;;;0.73;;
19036;SDS011;9651;49.138;8.900;2023-01-15T19:31:24;3.83;;;0.83;;
19036;SDS011;9651;49.138;8.900;2023-01-15T19:35:37;3.23;;;0.80;;
19036;SDS011;9651;49.138;8.900;2023-01-15T19:39:39;3.53;;;1.10;;
19036;SDS011;9651;49.138;8.900;2023-01-15T19:43:41;1.97;;;0.60;;
19036;SDS011;9651;49.138;8.900;2023-01-15T19:48:02;3.00;;;0.53;;
19036;SDS011;9651;49.138;8.900;2023-01-15T19:52:21;4.33;;;1.20;;
19036;SDS011;9651;49.138;8.900;2023-01-15T19:56:34;3.63;;;0.77;;
19036;SDS011;9651;49.138;8.900;2023-01-15T20:00:37;1.80;;;1.00;;
19036;SDS011;9651;49.138;8.900;2023-01-15T20:04:41;2.00;;;0.80;;
19036;SDS011;9651;49.138;8.900;2023-01-15T20:08:45;3.47;;;0.70;;
19036;SDS011;9651;49.138;8.900;2023-01-15T20:12:47;2.00;;;1.03;;
19036;SDS011;9651;49.138;8.900;2023-01-15T20:17:07;1.67;;;0.50;;
19036;SDS011;9651;49.138;8.900;2023-01-15T20:21:11;1.50;;;0.80;;
19036;SDS011;9651;49.138;8.900;2023-01-15T20:25:14;4.63;;;0.87;;
19036;SDS011;9651;49.138;8.900;2023-01-15T20:29:16;1.17;;;0.70;;
19036;SDS011;9651;49.138;8.900;2023-01-15T20:33:18;1.80;;;0.77;;
19036;SDS011;9651;49.138;8.900;2023-01-15T20:37:23;3.83;;;0.60;;
19036;SDS011;9651;49.138;8.900;2023-01-15T20:41:24;1.63;;;0.60;;
19036;SDS011;9651;49.138;8.900;2023-01-15T20:45:44;4.17;;;0.80;;
19036;SDS011;9651;49.138;8.900;2023-01-15T20:49:46;2.23;;;0.60;;
19036;SDS011;9651;49.138;8.900;2023-01-15T20:53:49;0.70;;;0.60;;
19036;SDS011;9651;49.138;8.900;2023-01-15T20:57:52;3.03;;;0.90;;
19036;SDS011;9651;49.138;8.900;2023-01-15T21:01:54;2.77;;;0.90;;
19036;SDS011;9651;49.138;8.900;2023-01-15T21:05:56;2.20;;;0.60;;
19036;SDS011;9651;49.138;8.900;2023-01-15T21:09:59;1.77;;;0.70;;
19036;SDS011;9651;49.138;8.900;2023-01-15T21:14:01;2.67;;;0.80;;
19036;SDS011;9651;49.138;8.900;2023-01-15T21:18:03;2.10;;;0.70;;
19036;SDS011;9651;49.138;8.900;2023-01-15T21:22:05;1.90;;;0.70;;
19036;SDS011;9651;49.138;8.900;2023-01-15T21:26:08;2.13;;;0.67;;
19036;SDS011;9651;49.138;8.900;2023-01-15T21:30:10;1.57;;;0.80;;
19036;SDS011;9651;49.138;8.900;2023-01-15T21:34:12;2.13;;;0.80;;
19036;SDS011;9651;49.138;8.900;2023-01-15T21:38:14;2.77;;;0.77;;
19036;SDS011;9651;49.138;8.900;2023-01-15T21:42:18;1.63;;;0.77;;
19036;SDS011;9651;49.138;8.900;2023-01-15T21:46:40;1.43;;;0.70;;
19036;SDS011;9651;49.138;8.900;2023-01-15T21:50:42;4.80;;;0.70;;
19036;SDS011;9651;49.138;8.900;2023-01-15T21:54:45;1.10;;;0.70;;
19036;SDS011;9651;49.138;8.900;2023-01-15T21:58:48;2.57;;;1.20;;
19036;SDS011;9651;49.138;8.900;2023-01-15T22:02:50;7.43;;;1.40;;
19036;SDS011;9651;49.138;8.900;2023-01-15T22:06:53;2.17;;;1.03;;
19036;SDS011;9651;49.138;8.900;2023-01-15T22:10:59;2.77;;;0.83;;
19036;SDS011;9651;49.138;8.900;2023-01-15T22:15:03;4.17;;;0.80;;
19036;SDS011;9651;49.138;8.900;2023-01-15T22:19:06;5.03;;;0.70;;
19036;SDS011;9651;49.138;8.900;2023-01-15T22:23:08;2.47;;;0.80;;
19036;SDS011;9651;49.138;8.900;2023-01-15T22:27:12;3.00;;;0.80;;
19036;SDS011;9651;49.138;8.900;2023-01-15T22:31:17;0.70;;;0.57;;
19036;SDS011;9651;49.138;8.900;2023-01-15T22:35:19;4.57;;;0.73;;
19036;SDS011;9651;49.138;8.900;2023-01-15T22:39:22;2.67;;;0.70;;
19036;SDS011;9651;49.138;8.900;2023-01-15T22:43:24;2.57;;;0.97;;
19036;SDS011;9651;49.138;8.900;2023-01-15T22:47:28;1.00;;;0.60;;
19036;SDS011;9651;49.138;8.900;2023-01-15T22:51:30;2.50;;;0.60;;
19036;SDS011;9651;49.138;8.900;2023-01-15T22:55:31;1.27;;;0.50;;
19036;SDS011;9651;49.138;8.900;2023-01-15T22:59:33;2.77;;;0.60;;
19036;SDS011;9651;49.138;8.900;2023-01-15T23:03:37;2.83;;;0.67;;
19036;SDS011;9651;49.138;8.900;2023-01-15T23:07:38;7.80;;;0.63;;
19036;SDS011;9651;49.138;8.900;2023-01-15T23:11:40;3.30;;;1.03;;
19036;SDS011;9651;49.138;8.900;2023-01-15T23:15:42;5.87;;;1.00;;
19036;SDS011;9651;49.138;8.900;2023-01-15T23:19:45;2.13;;;1.03;;
19036;SDS011;9651;49.138;8.900;2023-01-15T23:23:51;5.10;;;0.80;;
19036;SDS011;9651;49.138;8.900;2023-01-15T23:27:53;4.93;;;1.10;;
19036;SDS011;9651;49.138;8.900;2023-01-15T23:31:55;1.70;;;0.90;;
19036;SDS011;9651;49.138;8.900;2023-01-15T23:35:58;2.50;;;0.80;;
19036;SDS011;9651;49.138;8.900;2023-01-15T23:40:00;2.67;;;0.80;;
19036;SDS011;9651;49.138;8.900;2023-01-15T23:44:02;2.07;;;1.00;;
19036;SDS011;9651;49.138;8.900;2023-01-15T23:48:21;1.30;;;0.80;;
19036;SDS011;9651;49.138;8.900;2023-01-15T23:52:24;3.90;;;1.03;;
19036;SDS011;9651;49.138;8.900;2023-01-15T23:56:27;2.03;;;0.80;;
